Historique des mesures à Cassis (13260), France
Quotidien Résumé Mars 10, 2018 Unités:  US    Métrique   Métrique/US
« Précédent (Jour)
Suivant (Jour) »
Quotidien Hebdomadaire Mensuel Annuel Période au choix
  Maximum: Minimum: Moyenne:
Température: 32 °F 54.3 °F 55.4 °F
Point de rosée: 32 °F 48 °F 50.2 °F
Humidité: Humidity % 76 % 79 %
Vitesse du vent: WindSpeedKMH mph 0.0 mph 6.1 mph
Rafales: WindSpeedGustKMH mph - -
Vent:- - ESE
Pression: 0 in 29.6 in -
Précipitations: 50.8 in    
Historical Graphs
 
 
Mesures pour : Mars 10, 2018
Heure Temperature Point de rosée Pression Vent Vitesse du vent Rafales Humidité Pluie (par heure) Conditions
32 °F 32 °F 0 in Calm     Humidity % 0 in SoftwareType W/m2
00:12 55.8 °F 48.6 °F 29.8 in SE 2.1 mph 3.2 mph 77 % 0 in open2300-1.11 W/m2
01:12 55.6 °F 48 °F 29.8 in Calm   8.2 mph 76 % 0 in open2300-1.11 W/m2
02:12 54.3 °F 48.6 °F 29.8 in Calm   6.4 mph 81 % 0 in open2300-1.11 W/m2
03:12 54.5 °F 48.6 °F 29.8 in NE 2.6 mph 9.0 mph 80 % 0 in open2300-1.11 W/m2
04:12 54.5 °F 48 °F 29.7 in ESE 17.2 mph 17.2 mph 79 % 0 in open2300-1.11 W/m2
05:11 54.5 °F 48.7 °F 29.7 in SSE 7.6 mph 7.6 mph 81 % 0 in open2300-1.11 W/m2
06:12 54.3 °F 49.5 °F 29.7 in ESE 3.5 mph 14.8 mph 84 % 0 in open2300-1.11 W/m2
07:11 54.3 °F 50.2 °F 29.7 in ESE 5.0 mph 10.8 mph 86 % 0 in open2300-1.11 W/m2
08:12 54.3 °F 50.5 °F 29.7 in ESE 2.6 mph 4.7 mph 87 % 25.4 in open2300-1.11 W/m2
09:12 54.7 °F 50.7 °F 29.7 in ESE 5.8 mph 5.8 mph 87 % 12.7 in open2300-1.11 W/m2
10:12 55.2 °F 51.4 °F 29.7 in ESE 4.7 mph 4.7 mph 87 % 12.7 in open2300-1.11 W/m2
11:12 56.5 °F 52.5 °F 29.7 in Calm   6.4 mph 87 % 0 in open2300-1.11 W/m2
12:12 57 °F 53.2 °F 29.7 in ESE 1.1 mph 1.1 mph 87 % 0 in open2300-1.11 W/m2
13:12 57 °F 52.5 °F 29.7 in East 2.9 mph 7.2 mph 85 % 0 in open2300-1.11 W/m2
14:12 57.7 °F 52.9 °F 29.7 in SE 7.2 mph 15.4 mph 84 % 0 in open2300-1.11 W/m2
15:12 57.7 °F 52.9 °F 29.7 in East 4.0 mph 4.0 mph 84 % 0 in open2300-1.11 W/m2
16:12 58.5 °F 53.1 °F 29.7 in East 10.5 mph 10.5 mph 82 % 0 in open2300-1.11 W/m2
17:11 60.1 °F 53.2 °F 29.7 in ESE 12.6 mph 12.6 mph 78 % 0 in open2300-1.11 W/m2
18:11 58.5 °F 52 °F 29.7 in SE 20.6 mph 20.6 mph 79 % 0 in open2300-1.11 W/m2
19:12 57 °F 51.3 °F 29.7 in ENE 8.7 mph 8.7 mph 81 % 0 in open2300-1.11 W/m2
20:12 57 °F 50.9 °F 29.7 in ENE 5.8 mph 6.1 mph 80 % 0 in open2300-1.11 W/m2
21:12 57.4 °F 50.9 °F 29.7 in ENE 3.5 mph 12.2 mph 79 % 0 in open2300-1.11 W/m2
22:12 57.7 °F 50.9 °F 29.6 in ESE 17.2 mph 17.2 mph 78 % 0 in open2300-1.11 W/m2
23:12 57.4 °F 51.3 °F 29.7 in ESE 7.2 mph 8.2 mph 80 % 0 in open2300-1.11 W/m2
Observations météo à CASSIS
WU-History script by Weather Underground - 1 mb